createdAt,value
2022-08-30T00:00:00.565Z,6.80
2022-08-30T00:01:06.713Z,7.15
2022-08-30T00:02:08.909Z,6.80
2022-08-30T00:03:14.711Z,7.38
2022-08-30T00:04:17.924Z,7.32
2022-08-30T00:05:20.338Z,7.78
2022-08-30T00:06:23.521Z,7.78
2022-08-30T00:07:26.292Z,7.70
2022-08-30T00:08:30.005Z,8.13
2022-08-30T00:09:34.715Z,8.13
2022-08-30T00:10:40.880Z,7.82
2022-08-30T00:11:44.879Z,7.95
2022-08-30T00:12:49.626Z,8.00
2022-08-30T00:13:55.767Z,7.57
2022-08-30T00:14:58.370Z,8.05
2022-08-30T00:16:00.638Z,7.70
2022-08-30T00:17:03.068Z,8.40
2022-08-30T00:18:05.732Z,7.95
2022-08-30T00:19:07.964Z,8.00
2022-08-30T00:20:14.960Z,8.25
2022-08-30T00:21:17.494Z,8.07
2022-08-30T00:22:19.600Z,7.63
2022-08-30T00:23:22.738Z,7.80
2022-08-30T00:24:24.916Z,7.72
2022-08-30T00:25:27.880Z,7.90
2022-08-30T00:26:30.309Z,7.32
2022-08-30T00:27:33.055Z,7.65
2022-08-30T00:28:36.350Z,7.15
2022-08-30T00:29:38.622Z,7.50
2022-08-30T00:30:41.840Z,7.57
2022-08-30T00:31:49.606Z,7.97
2022-08-30T00:32:54.203Z,7.80
2022-08-30T00:33:56.420Z,7.70
2022-08-30T00:34:58.990Z,7.82
2022-08-30T00:36:01.145Z,7.80
2022-08-30T00:37:03.475Z,7.40
2022-08-30T00:38:06.239Z,7.38
2022-08-30T00:39:08.510Z,7.40
2022-08-30T00:40:12.339Z,7.70
2022-08-30T00:41:14.529Z,7.63
2022-08-30T00:42:18.749Z,7.43
2022-08-30T00:43:25.276Z,7.68
2022-08-30T00:44:30.032Z,7.90
2022-08-30T00:45:35.427Z,7.78
2022-08-30T00:46:37.745Z,7.95
2022-08-30T00:47:40.722Z,8.15
2022-08-30T00:48:47.880Z,8.05
2022-08-30T00:49:56.583Z,7.47
2022-08-30T00:51:03.624Z,7.70
2022-08-30T00:52:07.505Z,7.63
2022-08-30T00:53:14.543Z,7.65
2022-08-30T00:54:17.641Z,7.70
2022-08-30T00:55:21.159Z,7.60
2022-08-30T00:56:25.538Z,7.60
2022-08-30T00:57:28.581Z,7.38
2022-08-30T00:58:39.526Z,7.70
2022-08-30T00:59:44.618Z,7.70
2022-08-30T01:00:47.394Z,7.30
2022-08-30T01:01:49.634Z,7.73
2022-08-30T01:02:51.973Z,8.15
2022-08-30T01:03:55.328Z,7.80
2022-08-30T01:04:58.328Z,8.55
2022-08-30T01:06:04.234Z,8.40
2022-08-30T01:07:08.456Z,7.65
2022-08-30T01:08:10.990Z,8.07
2022-08-30T01:09:14.564Z,7.55
2022-08-30T01:10:17.627Z,7.80
2022-08-30T01:11:24.031Z,8.07
2022-08-30T01:12:26.689Z,7.10
2022-08-30T01:13:28.942Z,7.38
2022-08-30T01:14:33.315Z,7.25
2022-08-30T01:15:37.331Z,7.03
2022-08-30T01:16:41.585Z,7.32
2022-08-30T01:17:45.343Z,7.18
2022-08-30T01:18:49.763Z,7.07
2022-08-30T01:20:02.963Z,7.53
2022-08-30T01:21:08.410Z,7.38
2022-08-30T01:22:25.858Z,7.18
2022-08-30T01:23:29.059Z,7.40
2022-08-30T01:24:33.627Z,7.22
2022-08-30T01:25:37.585Z,7.28
2022-08-30T01:26:40.086Z,7.53
2022-08-30T01:27:45.850Z,7.38
2022-08-30T01:28:50.388Z,6.90
2022-08-30T01:29:53.638Z,6.95
2022-08-30T01:30:56.272Z,7.45
2022-08-30T01:31:58.500Z,6.95
2022-08-30T01:33:04.063Z,7.10
2022-08-30T01:34:07.793Z,7.27
2022-08-30T01:35:11.584Z,7.47
2022-08-30T01:36:15.282Z,7.57
2022-08-30T01:37:21.966Z,7.97
2022-08-30T01:38:27.713Z,7.95
2022-08-30T01:39:30.030Z,7.80
2022-08-30T01:40:32.309Z,7.97
2022-08-30T01:41:36.227Z,7.60
2022-08-30T01:42:38.603Z,7.43
2022-08-30T01:43:41.246Z,7.57
2022-08-30T01:44:44.445Z,7.03
2022-08-30T01:45:46.796Z,7.47
2022-08-30T01:46:49.055Z,7.22
2022-08-30T01:47:51.427Z,7.20
2022-08-30T01:48:56.208Z,7.10
2022-08-30T01:49:58.581Z,7.20
2022-08-30T01:51:01.100Z,7.30
2022-08-30T01:52:04.346Z,7.57
2022-08-30T01:53:06.976Z,7.63
2022-08-30T01:54:10.464Z,8.00
2022-08-30T01:55:12.613Z,8.03
2022-08-30T01:56:15.747Z,7.88
2022-08-30T01:57:21.233Z,8.32
2022-08-30T01:58:23.441Z,7.47
2022-08-30T01:59:25.751Z,7.38
2022-08-30T02:00:27.911Z,7.70
2022-08-30T02:01:32.993Z,8.38
2022-08-30T02:02:35.462Z,7.55
2022-08-30T02:03:37.694Z,7.95
2022-08-30T02:04:39.901Z,7.50
2022-08-30T02:05:42.038Z,7.70
2022-08-30T02:06:46.251Z,8.18
2022-08-30T02:07:48.840Z,8.10
2022-08-30T02:08:51.055Z,8.07
2022-08-30T02:09:54.004Z,8.10
2022-08-30T02:10:56.254Z,8.02
2022-08-30T02:11:58.638Z,7.25
2022-08-30T02:13:00.871Z,7.82
2022-08-30T02:14:03.279Z,8.13
2022-08-30T02:15:06.598Z,8.10
2022-08-30T02:16:12.226Z,8.00
2022-08-30T02:17:16.023Z,8.02
2022-08-30T02:18:18.240Z,8.05
2022-08-30T02:19:20.349Z,7.80
2022-08-30T02:20:23.042Z,8.27
2022-08-30T02:21:28.957Z,7.53
2022-08-30T02:22:31.382Z,7.63
2022-08-30T02:23:33.529Z,7.57
2022-08-30T02:24:35.913Z,8.25
2022-08-30T02:25:38.374Z,7.43
2022-08-30T02:26:40.659Z,7.60
2022-08-30T02:27:42.950Z,7.95
2022-08-30T02:28:49.966Z,7.53
2022-08-30T02:29:52.701Z,8.15
2022-08-30T02:30:55.048Z,8.27
2022-08-30T02:31:59.318Z,7.60
2022-08-30T02:33:01.994Z,8.13
2022-08-30T02:34:04.601Z,7.32
2022-08-30T02:35:07.230Z,7.60
2022-08-30T02:36:09.604Z,7.85
2022-08-30T02:37:11.920Z,7.10
2022-08-30T02:38:14.560Z,7.20
2022-08-30T02:39:17.259Z,7.35
2022-08-30T02:40:21.311Z,7.13
2022-08-30T02:41:23.918Z,7.22
2022-08-30T02:42:26.073Z,7.50
2022-08-30T02:43:28.946Z,7.35
2022-08-30T02:44:31.236Z,7.20
2022-08-30T02:45:33.962Z,7.00
2022-08-30T02:46:37.043Z,7.32
2022-08-30T02:47:44.935Z,8.40
2022-08-30T02:48:50.978Z,7.78
2022-08-30T02:49:53.701Z,8.20
2022-08-30T02:50:55.932Z,7.93
2022-08-30T02:51:58.113Z,7.30
2022-08-30T02:53:00.346Z,8.00
2022-08-30T02:54:02.672Z,7.97
2022-08-30T02:55:06.715Z,8.00
2022-08-30T02:56:09.030Z,7.60
2022-08-30T02:57:20.122Z,7.80
2022-08-30T02:58:22.398Z,7.87
2022-08-30T02:59:24.652Z,8.00
2022-08-30T03:00:26.871Z,7.63
2022-08-30T03:01:29.490Z,7.80
2022-08-30T03:02:31.755Z,7.63
2022-08-30T03:03:34.115Z,7.05
2022-08-30T03:04:36.810Z,7.28
2022-08-30T03:05:39.912Z,7.40
2022-08-30T03:06:43.107Z,7.40
2022-08-30T03:07:48.192Z,6.80
2022-08-30T03:08:50.622Z,6.97
2022-08-30T03:09:53.059Z,7.80
2022-08-30T03:10:57.055Z,7.68
2022-08-30T03:11:59.151Z,7.65
2022-08-30T03:13:01.454Z,7.55
2022-08-30T03:14:03.915Z,7.72
2022-08-30T03:15:07.655Z,7.38
2022-08-30T03:16:09.874Z,7.22
2022-08-30T03:17:12.850Z,7.30
2022-08-30T03:18:19.519Z,7.20
2022-08-30T03:19:21.976Z,7.60
2022-08-30T03:20:24.751Z,7.55
2022-08-30T03:21:27.029Z,7.72
2022-08-30T03:22:29.805Z,7.50
2022-08-30T03:23:32.049Z,7.22
2022-08-30T03:24:35.065Z,7.30
2022-08-30T03:25:37.221Z,7.10
2022-08-30T03:26:42.042Z,7.78
2022-08-30T03:27:48.389Z,8.27
2022-08-30T03:28:51.643Z,7.80
2022-08-30T03:29:54.001Z,7.73
2022-08-30T03:30:56.827Z,7.20
2022-08-30T03:31:59.112Z,7.00
2022-08-30T03:33:02.311Z,7.20
2022-08-30T03:34:06.054Z,7.28
2022-08-30T03:35:09.210Z,6.90
2022-08-30T03:36:12.177Z,7.75
2022-08-30T03:37:14.491Z,7.60
2022-08-30T03:38:16.779Z,7.85
2022-08-30T03:39:19.049Z,7.63
2022-08-30T03:40:23.209Z,8.07
2022-08-30T03:41:25.993Z,8.38
2022-08-30T03:42:28.230Z,7.45
2022-08-30T03:43:33.300Z,7.82
2022-08-30T03:44:35.428Z,7.85
2022-08-30T03:45:39.450Z,7.28
2022-08-30T03:46:41.789Z,7.93
2022-08-30T03:47:44.991Z,7.50
2022-08-30T03:48:47.189Z,7.43
2022-08-30T03:49:49.314Z,7.53
2022-08-30T03:50:51.535Z,7.80
2022-08-30T03:51:53.713Z,7.30
2022-08-30T03:52:56.020Z,7.53
2022-08-30T03:53:58.162Z,7.50
2022-08-30T03:55:01.310Z,7.55
2022-08-30T03:56:04.075Z,7.40
2022-08-30T03:57:06.905Z,7.35
2022-08-30T03:58:09.081Z,7.53
2022-08-30T03:59:11.428Z,7.25
2022-08-30T04:00:15.999Z,7.72
2022-08-30T04:01:18.359Z,6.73
2022-08-30T04:02:20.916Z,6.93
2022-08-30T04:03:26.128Z,7.40
2022-08-30T04:04:28.323Z,7.28
2022-08-30T04:05:31.475Z,7.35
2022-08-30T04:06:34.471Z,7.53
2022-08-30T04:07:38.130Z,7.75
2022-08-30T04:08:41.828Z,7.65
2022-08-30T04:09:45.694Z,7.90
2022-08-30T04:10:49.487Z,7.60
2022-08-30T04:11:52.864Z,7.90
2022-08-30T04:12:57.312Z,7.78
2022-08-30T04:14:00.223Z,7.80
2022-08-30T04:15:04.341Z,7.70
2022-08-30T04:16:08.388Z,7.80
2022-08-30T04:17:12.044Z,7.57
2022-08-30T04:18:14.632Z,7.05
2022-08-30T04:19:17.219Z,7.13
2022-08-30T04:20:19.390Z,7.35
2022-08-30T04:21:23.884Z,6.95
2022-08-30T04:22:26.048Z,7.27
2022-08-30T04:23:28.709Z,7.72
2022-08-30T04:24:30.966Z,8.15
2022-08-30T04:25:39.565Z,7.78
2022-08-30T04:26:41.823Z,7.88
2022-08-30T04:27:45.574Z,7.50
2022-08-30T04:28:48.136Z,8.05
2022-08-30T04:29:50.579Z,7.85
2022-08-30T04:30:52.711Z,7.63
2022-08-30T04:31:57.431Z,7.72
2022-08-30T04:33:01.116Z,6.80
2022-08-30T04:34:03.430Z,7.57
2022-08-30T04:35:06.928Z,7.72
2022-08-30T04:36:11.348Z,7.90
2022-08-30T04:37:13.796Z,7.82
2022-08-30T04:38:17.408Z,7.82
2022-08-30T04:39:20.636Z,7.80
2022-08-30T04:40:23.543Z,7.38
2022-08-30T04:41:25.958Z,7.50
2022-08-30T04:42:32.025Z,7.43
2022-08-30T04:43:34.360Z,7.47
2022-08-30T04:44:36.858Z,7.07
2022-08-30T04:45:41.125Z,7.50
2022-08-30T04:46:44.435Z,7.85
2022-08-30T04:47:48.287Z,7.50
2022-08-30T04:48:50.804Z,7.60
2022-08-30T04:49:53.937Z,7.30
2022-08-30T04:50:56.461Z,6.93
2022-08-30T04:51:58.936Z,7.50
2022-08-30T04:53:01.429Z,7.35
2022-08-30T04:54:03.871Z,7.67
2022-08-30T04:55:08.930Z,7.25
2022-08-30T04:56:17.309Z,7.55
2022-08-30T04:57:21.332Z,8.50
2022-08-30T04:58:25.528Z,7.80
2022-08-30T04:59:29.385Z,8.73
2022-08-30T05:00:32.109Z,8.55
2022-08-30T05:01:44.491Z,8.30
2022-08-30T05:02:47.850Z,8.48
2022-08-30T05:03:50.779Z,7.70
2022-08-30T05:05:11.842Z,7.97
2022-08-30T05:06:17.778Z,7.63
2022-08-30T05:07:21.442Z,8.50
2022-08-30T05:08:25.531Z,7.65
2022-08-30T05:09:29.181Z,7.45
2022-08-30T05:10:33.690Z,8.02
2022-08-30T05:11:37.719Z,7.63
2022-08-30T05:12:42.331Z,8.70
2022-08-30T05:13:48.242Z,7.88
2022-08-30T05:14:52.808Z,9.38
2022-08-30T05:15:56.672Z,9.23
2022-08-30T05:17:01.178Z,9.52
2022-08-30T05:18:05.853Z,9.60
2022-08-30T05:19:09.885Z,9.88
2022-08-30T05:20:14.426Z,9.35
2022-08-30T05:21:21.440Z,9.57
2022-08-30T05:22:26.652Z,9.13
2022-08-30T05:23:31.137Z,8.25
2022-08-30T05:24:36.412Z,8.25
2022-08-30T05:25:43.245Z,7.35
2022-08-30T05:27:52.364Z,5.97
2022-08-30T05:28:55.732Z,6.75
2022-08-30T05:29:58.003Z,6.40
2022-08-30T05:31:00.283Z,6.43
2022-08-30T05:32:02.686Z,6.75
2022-08-30T05:33:06.967Z,6.30
2022-08-30T05:34:09.363Z,5.85
2022-08-30T05:35:13.217Z,6.18
2022-08-30T05:36:17.632Z,6.03
2022-08-30T05:37:19.889Z,6.30
2022-08-30T05:38:22.127Z,6.30
2022-08-30T05:39:24.470Z,6.07
2022-08-30T05:40:26.758Z,6.22
2022-08-30T05:41:31.475Z,6.05
2022-08-30T05:42:35.647Z,6.28
2022-08-30T05:43:38.007Z,6.60
2022-08-30T05:44:40.192Z,7.10
2022-08-30T05:45:46.680Z,7.00
2022-08-30T05:46:49.315Z,5.80
2022-08-30T05:47:51.525Z,6.50
2022-08-30T05:48:53.718Z,6.47
2022-08-30T05:49:55.845Z,6.18
2022-08-30T05:51:13.677Z,5.72
2022-08-30T05:52:18.193Z,6.40
2022-08-30T05:53:20.381Z,5.95
2022-08-30T05:54:22.584Z,5.90
2022-08-30T05:55:24.782Z,5.88
2022-08-30T05:56:36.103Z,6.50
2022-08-30T05:57:40.252Z,6.30
2022-08-30T05:58:42.719Z,6.40
2022-08-30T05:59:45.013Z,5.93
2022-08-30T06:00:47.292Z,6.13
2022-08-30T06:01:49.536Z,6.07
2022-08-30T06:02:54.642Z,6.00
2022-08-30T06:04:03.023Z,6.95
2022-08-30T06:05:06.429Z,6.80
2022-08-30T06:06:08.695Z,5.80
2022-08-30T06:07:13.027Z,5.70
2022-08-30T06:08:18.192Z,5.25
2022-08-30T06:09:20.572Z,4.93
2022-08-30T06:10:22.775Z,5.15
2022-08-30T06:11:26.271Z,5.60
2022-08-30T06:12:28.557Z,5.63
2022-08-30T06:13:32.407Z,5.00
2022-08-30T06:14:34.547Z,5.32
2022-08-30T06:15:37.769Z,5.25
2022-08-30T06:16:41.036Z,5.75
2022-08-30T06:17:43.242Z,5.40
2022-08-30T06:18:45.898Z,5.03
2022-08-30T06:19:48.090Z,5.50
2022-08-30T06:20:51.437Z,5.10
2022-08-30T06:21:53.695Z,5.40
2022-08-30T06:22:55.896Z,5.50
2022-08-30T06:23:59.048Z,5.57
2022-08-30T06:25:01.294Z,5.47
2022-08-30T06:26:07.742Z,5.35
2022-08-30T06:27:10.951Z,5.43
2022-08-30T06:28:13.498Z,5.80
2022-08-30T06:29:18.862Z,5.43
2022-08-30T06:30:21.080Z,5.70
2022-08-30T06:31:25.429Z,5.70
2022-08-30T06:32:27.607Z,5.57
2022-08-30T06:33:32.431Z,6.05
2022-08-30T06:34:34.858Z,5.40
2022-08-30T06:35:46.699Z,5.28
2022-08-30T06:36:59.294Z,5.10
2022-08-30T06:38:01.395Z,5.00
2022-08-30T06:39:04.095Z,5.13
2022-08-30T06:40:07.908Z,5.00
2022-08-30T06:41:13.302Z,5.27
2022-08-30T06:42:15.605Z,5.13
2022-08-30T06:43:17.744Z,5.10
2022-08-30T06:44:19.904Z,5.30
2022-08-30T06:45:22.513Z,5.10
2022-08-30T06:46:27.978Z,5.13
2022-08-30T06:47:30.580Z,5.50
2022-08-30T06:48:32.866Z,5.53
2022-08-30T06:49:35.146Z,5.00
2022-08-30T06:50:37.387Z,5.07
2022-08-30T06:51:42.044Z,5.60
2022-08-30T06:52:45.517Z,5.70
2022-08-30T06:53:50.207Z,5.40
2022-08-30T06:54:54.004Z,5.22
2022-08-30T06:55:57.921Z,5.57
2022-08-30T06:57:00.152Z,5.40
2022-08-30T06:58:03.329Z,6.13
2022-08-30T06:59:05.850Z,6.03
2022-08-30T07:00:10.657Z,6.78
2022-08-30T07:01:19.895Z,5.78
2022-08-30T07:02:22.145Z,5.50
2022-08-30T07:03:25.640Z,5.40
2022-08-30T07:04:27.858Z,5.70
2022-08-30T07:05:30.032Z,5.95
2022-08-30T07:06:33.209Z,6.38
2022-08-30T07:07:35.805Z,5.80
2022-08-30T07:08:38.666Z,5.97
2022-08-30T07:09:43.397Z,5.97
2022-08-30T07:10:45.946Z,5.70
2022-08-30T07:11:48.085Z,5.40
2022-08-30T07:12:50.333Z,5.30
2022-08-30T07:13:52.495Z,5.20
2022-08-30T07:14:54.732Z,5.10
2022-08-30T07:15:57.211Z,5.25
2022-08-30T07:16:59.539Z,5.97
2022-08-30T07:18:20.567Z,5.15
2022-08-30T07:19:23.149Z,4.80
2022-08-30T07:20:25.394Z,4.60
2022-08-30T07:21:34.415Z,4.70
2022-08-30T07:22:36.540Z,4.63
2022-08-30T07:23:39.164Z,4.67
2022-08-30T07:24:41.459Z,4.25
2022-08-30T07:25:43.695Z,4.43
2022-08-30T07:26:49.805Z,4.45
2022-08-30T07:27:52.222Z,4.40
2022-08-30T07:28:55.892Z,7.00
2022-08-30T07:29:59.582Z,5.10
2022-08-30T07:31:02.259Z,4.72
2022-08-30T07:32:04.823Z,4.30
2022-08-30T07:33:07.326Z,4.90
2022-08-30T07:34:09.898Z,4.37
2022-08-30T07:35:15.164Z,4.78
2022-08-30T07:36:18.211Z,4.47
2022-08-30T07:37:20.385Z,4.00
2022-08-30T07:38:22.734Z,4.50
2022-08-30T07:39:24.963Z,4.28
2022-08-30T07:40:27.715Z,4.22
2022-08-30T07:41:34.188Z,4.07
2022-08-30T07:42:36.907Z,4.40
2022-08-30T07:43:39.204Z,4.40
2022-08-30T07:44:41.517Z,4.50
2022-08-30T07:45:43.929Z,4.68
2022-08-30T07:46:46.161Z,4.53
2022-08-30T07:47:48.751Z,4.97
2022-08-30T07:48:54.352Z,4.80
2022-08-30T07:49:56.495Z,4.72
2022-08-30T07:51:03.096Z,4.55
2022-08-30T07:52:07.450Z,4.90
2022-08-30T07:53:11.271Z,4.65
2022-08-30T07:54:13.640Z,4.88
2022-08-30T07:55:16.581Z,5.50
2022-08-30T07:56:18.893Z,6.30
2022-08-30T07:57:21.537Z,4.40
2022-08-30T07:58:23.887Z,5.20
2022-08-30T07:59:26.699Z,11.38
2022-08-30T08:00:29.044Z,4.80
2022-08-30T08:01:31.606Z,4.80
2022-08-30T08:02:34.130Z,4.90
2022-08-30T08:03:36.871Z,4.20
2022-08-30T08:04:39.196Z,4.40
2022-08-30T08:05:45.472Z,4.60
2022-08-30T08:06:47.860Z,4.00
2022-08-30T08:07:50.123Z,4.30
2022-08-30T08:08:53.656Z,4.15
2022-08-30T08:09:56.639Z,4.28
2022-08-30T08:10:59.346Z,4.32
2022-08-30T08:12:03.404Z,4.78
2022-08-30T08:13:05.837Z,4.70
2022-08-30T08:14:08.500Z,4.30
2022-08-30T08:15:11.248Z,4.10
2022-08-30T08:16:13.614Z,4.13
2022-08-30T08:17:19.537Z,4.30
2022-08-30T08:18:21.729Z,4.20
2022-08-30T08:19:24.054Z,4.10
2022-08-30T08:20:26.616Z,4.57
2022-08-30T08:21:29.226Z,4.70
2022-08-30T08:22:31.420Z,4.55
2022-08-30T08:23:34.043Z,4.30
2022-08-30T08:24:36.303Z,4.68
2022-08-30T08:25:41.075Z,4.20
2022-08-30T08:26:45.256Z,4.57
2022-08-30T08:27:50.971Z,4.15
2022-08-30T08:28:53.638Z,4.32
2022-08-30T08:29:57.629Z,4.03
2022-08-30T08:30:59.896Z,4.20
2022-08-30T08:32:02.212Z,3.90
2022-08-30T08:33:05.712Z,3.83
2022-08-30T08:34:11.246Z,3.80
2022-08-30T08:35:15.106Z,4.10
2022-08-30T08:36:18.691Z,3.60
2022-08-30T08:37:21.934Z,4.13
2022-08-30T08:38:29.987Z,8.77
2022-08-30T08:39:32.171Z,4.60
2022-08-30T08:41:05.604Z,4.00
2022-08-30T08:42:36.842Z,4.15
2022-08-30T08:43:39.746Z,4.10
2022-08-30T08:45:00.158Z,4.20
2022-08-30T08:46:26.277Z,3.75
2022-08-30T08:47:47.963Z,4.05
2022-08-30T08:49:00.824Z,3.90
2022-08-30T08:50:07.059Z,4.73
2022-08-30T08:51:36.633Z,4.15
2022-08-30T08:53:36.110Z,4.25
2022-08-30T08:54:59.130Z,4.40
2022-08-30T08:56:07.271Z,4.10
2022-08-30T08:57:16.530Z,4.00
